sensor_id;sensor_type;location;lat;lon;timestamp;pressure;altitude;pressure_sealevel;temperature;humidity
16595;BME280;8410;52.532;13.336;2023-05-03T00:01:21;102233.69;;;11.04;58.66
16595;BME280;8410;52.532;13.336;2023-05-03T00:03:51;102231.19;;;11.60;57.47
16595;BME280;8410;52.532;13.336;2023-05-03T00:06:18;102238.31;;;10.90;58.58
16595;BME280;8410;52.532;13.336;2023-05-03T00:08:47;102235.72;;;11.14;58.23
16595;BME280;8410;52.532;13.336;2023-05-03T00:11:15;102238.59;;;10.74;58.96
16595;BME280;8410;52.532;13.336;2023-05-03T00:13:43;102241.03;;;10.93;58.75
16595;BME280;8410;52.532;13.336;2023-05-03T00:16:11;102234.47;;;11.03;58.97
16595;BME280;8410;52.532;13.336;2023-05-03T00:18:38;102241.81;;;10.67;59.55
16595;BME280;8410;52.532;13.336;2023-05-03T00:21:06;102239.41;;;10.26;61.01
16595;BME280;8410;52.532;13.336;2023-05-03T00:23:33;102233.69;;;10.11;61.32
16595;BME280;8410;52.532;13.336;2023-05-03T00:26:01;102235.22;;;10.06;61.88
16595;BME280;8410;52.532;13.336;2023-05-03T00:28:28;102226.34;;;10.43;61.34
16595;BME280;8410;52.532;13.336;2023-05-03T00:31:05;102243.09;;;10.79;60.84
16595;BME280;8410;52.532;13.336;2023-05-03T00:33:33;102229.38;;;10.32;61.72
16595;BME280;8410;52.532;13.336;2023-05-03T00:36:06;102231.50;;;10.43;61.86
16595;BME280;8410;52.532;13.336;2023-05-03T00:38:34;102239.47;;;10.50;61.08
16595;BME280;8410;52.532;13.336;2023-05-03T00:41:01;102242.53;;;10.40;61.38
16595;BME280;8410;52.532;13.336;2023-05-03T00:43:30;102252.97;;;10.22;62.34
16595;BME280;8410;52.532;13.336;2023-05-03T00:45:59;102239.50;;;10.28;63.06
16595;BME280;8410;52.532;13.336;2023-05-03T00:48:42;102247.72;;;10.19;63.24
16595;BME280;8410;52.532;13.336;2023-05-03T00:51:12;102243.81;;;10.75;61.31
16595;BME280;8410;52.532;13.336;2023-05-03T00:53:40;102243.22;;;10.58;61.49
16595;BME280;8410;52.532;13.336;2023-05-03T00:56:08;102236.28;;;10.33;62.56
16595;BME280;8410;52.532;13.336;2023-05-03T00:58:36;102230.28;;;10.12;62.90
16595;BME280;8410;52.532;13.336;2023-05-03T01:01:07;102242.09;;;10.07;63.51
16595;BME280;8410;52.532;13.336;2023-05-03T01:03:35;102240.88;;;10.89;62.07
16595;BME280;8410;52.532;13.336;2023-05-03T01:06:10;102231.13;;;10.33;62.13
16595;BME280;8410;52.532;13.336;2023-05-03T01:08:43;102240.38;;;10.51;62.63
16595;BME280;8410;52.532;13.336;2023-05-03T01:11:18;102241.44;;;10.12;62.88
16595;BME280;8410;52.532;13.336;2023-05-03T01:13:52;102240.56;;;10.12;64.23
16595;BME280;8410;52.532;13.336;2023-05-03T01:16:27;102242.31;;;10.82;62.43
16595;BME280;8410;52.532;13.336;2023-05-03T01:18:59;102245.34;;;10.70;62.14
16595;BME280;8410;52.532;13.336;2023-05-03T01:21:31;102241.94;;;10.71;61.83
16595;BME280;8410;52.532;13.336;2023-05-03T01:24:06;102243.22;;;10.82;61.96
16595;BME280;8410;52.532;13.336;2023-05-03T01:26:36;102251.66;;;10.78;61.66
16595;BME280;8410;52.532;13.336;2023-05-03T01:29:03;102252.13;;;11.16;61.71
16595;BME280;8410;52.532;13.336;2023-05-03T01:31:33;102252.03;;;10.89;61.71
16595;BME280;8410;52.532;13.336;2023-05-03T01:34:16;102251.34;;;10.69;62.51
16595;BME280;8410;52.532;13.336;2023-05-03T01:36:44;102251.34;;;10.24;63.42
16595;BME280;8410;52.532;13.336;2023-05-03T01:39:17;102252.56;;;10.32;63.76
16595;BME280;8410;52.532;13.336;2023-05-03T01:41:48;102249.06;;;9.87;64.80
16595;BME280;8410;52.532;13.336;2023-05-03T01:44:17;102257.47;;;9.62;65.70
16595;BME280;8410;52.532;13.336;2023-05-03T01:46:45;102253.84;;;9.36;66.02
16595;BME280;8410;52.532;13.336;2023-05-03T01:49:13;102250.03;;;10.13;64.72
16595;BME280;8410;52.532;13.336;2023-05-03T01:51:41;102253.59;;;10.37;63.78
16595;BME280;8410;52.532;13.336;2023-05-03T01:54:08;102253.25;;;10.07;64.47
16595;BME280;8410;52.532;13.336;2023-05-03T01:56:37;102255.47;;;9.55;65.85
16595;BME280;8410;52.532;13.336;2023-05-03T01:59:05;102253.25;;;9.85;64.89
16595;BME280;8410;52.532;13.336;2023-05-03T02:01:34;102250.53;;;10.03;64.75
16595;BME280;8410;52.532;13.336;2023-05-03T02:04:01;102249.09;;;9.88;65.43
16595;BME280;8410;52.532;13.336;2023-05-03T02:06:29;102256.97;;;9.49;67.47
16595;BME280;8410;52.532;13.336;2023-05-03T02:08:56;102252.31;;;9.62;66.28
16595;BME280;8410;52.532;13.336;2023-05-03T02:11:24;102257.03;;;9.72;66.45
16595;BME280;8410;52.532;13.336;2023-05-03T02:13:51;102260.91;;;9.83;65.54
16595;BME280;8410;52.532;13.336;2023-05-03T02:16:20;102262.69;;;10.07;64.96
16595;BME280;8410;52.532;13.336;2023-05-03T02:18:48;102264.25;;;9.60;66.20
16595;BME280;8410;52.532;13.336;2023-05-03T02:21:17;102268.56;;;9.61;65.98
16595;BME280;8410;52.532;13.336;2023-05-03T02:23:44;102276.53;;;9.25;66.41
16595;BME280;8410;52.532;13.336;2023-05-03T02:26:12;102272.19;;;9.24;67.72
16595;BME280;8410;52.532;13.336;2023-05-03T02:28:39;102278.75;;;8.78;68.52
16595;BME280;8410;52.532;13.336;2023-05-03T02:31:07;102278.28;;;8.87;69.17
16595;BME280;8410;52.532;13.336;2023-05-03T02:33:36;102288.28;;;8.81;68.54
16595;BME280;8410;52.532;13.336;2023-05-03T02:36:04;102287.63;;;9.04;68.13
16595;BME280;8410;52.532;13.336;2023-05-03T02:38:31;102289.25;;;8.83;67.95
16595;BME280;8410;52.532;13.336;2023-05-03T02:40:59;102286.28;;;8.93;68.16
16595;BME280;8410;52.532;13.336;2023-05-03T02:43:26;102282.94;;;9.56;67.36
16595;BME280;8410;52.532;13.336;2023-05-03T02:45:54;102275.38;;;9.18;67.23
16595;BME280;8410;52.532;13.336;2023-05-03T02:48:22;102287.91;;;9.32;66.90
16595;BME280;8410;52.532;13.336;2023-05-03T02:50:51;102282.94;;;9.56;66.80
16595;BME280;8410;52.532;13.336;2023-05-03T02:53:20;102292.09;;;9.49;66.28
16595;BME280;8410;52.532;13.336;2023-05-03T02:55:48;102292.00;;;9.47;66.16
16595;BME280;8410;52.532;13.336;2023-05-03T02:58:15;102295.19;;;9.21;66.48
16595;BME280;8410;52.532;13.336;2023-05-03T03:00:43;102294.75;;;9.31;66.49
16595;BME280;8410;52.532;13.336;2023-05-03T03:03:10;102292.97;;;9.30;66.19
16595;BME280;8410;52.532;13.336;2023-05-03T03:05:38;102305.19;;;8.95;68.12
16595;BME280;8410;52.532;13.336;2023-05-03T03:08:07;102299.94;;;9.12;67.27
16595;BME280;8410;52.532;13.336;2023-05-03T03:10:34;102303.34;;;9.32;66.95
16595;BME280;8410;52.532;13.336;2023-05-03T03:13:02;102300.50;;;9.06;66.90
16595;BME280;8410;52.532;13.336;2023-05-03T03:15:29;102300.06;;;9.15;67.62
16595;BME280;8410;52.532;13.336;2023-05-03T03:17:57;102301.47;;;9.48;66.76
16595;BME280;8410;52.532;13.336;2023-05-03T03:20:24;102305.13;;;9.54;66.89
16595;BME280;8410;52.532;13.336;2023-05-03T03:22:51;102305.19;;;9.15;67.74
16595;BME280;8410;52.532;13.336;2023-05-03T03:25:20;102306.00;;;8.94;68.27
16595;BME280;8410;52.532;13.336;2023-05-03T03:27:48;102313.44;;;9.08;67.55
16595;BME280;8410;52.532;13.336;2023-05-03T03:30:15;102322.50;;;8.99;68.00
16595;BME280;8410;52.532;13.336;2023-05-03T03:32:43;102306.56;;;9.07;67.84
16595;BME280;8410;52.532;13.336;2023-05-03T03:35:10;102315.97;;;9.27;67.61
16595;BME280;8410;52.532;13.336;2023-05-03T03:37:38;102316.28;;;9.54;66.28
16595;BME280;8410;52.532;13.336;2023-05-03T03:40:07;102317.63;;;9.05;66.88
16595;BME280;8410;52.532;13.336;2023-05-03T03:42:36;102321.75;;;9.02;67.41
16595;BME280;8410;52.532;13.336;2023-05-03T03:45:04;102324.44;;;9.44;66.57
16595;BME280;8410;52.532;13.336;2023-05-03T03:47:32;102323.41;;;9.60;66.29
16595;BME280;8410;52.532;13.336;2023-05-03T03:49:59;102321.06;;;9.66;66.25
16595;BME280;8410;52.532;13.336;2023-05-03T03:52:28;102320.75;;;9.79;65.70
16595;BME280;8410;52.532;13.336;2023-05-03T03:54:55;102332.22;;;9.66;66.81
16595;BME280;8410;52.532;13.336;2023-05-03T03:57:23;102331.78;;;9.77;66.06
16595;BME280;8410;52.532;13.336;2023-05-03T03:59:56;102330.84;;;9.96;64.96
16595;BME280;8410;52.532;13.336;2023-05-03T04:02:24;102335.31;;;10.00;65.21
16595;BME280;8410;52.532;13.336;2023-05-03T04:04:52;102331.03;;;10.21;64.14
16595;BME280;8410;52.532;13.336;2023-05-03T04:07:19;102339.75;;;9.83;64.93
16595;BME280;8410;52.532;13.336;2023-05-03T04:09:47;102342.19;;;9.59;65.71
16595;BME280;8410;52.532;13.336;2023-05-03T04:12:14;102344.41;;;9.70;65.10
16595;BME280;8410;52.532;13.336;2023-05-03T04:14:42;102346.66;;;9.63;65.48
16595;BME280;8410;52.532;13.336;2023-05-03T04:17:10;102353.19;;;9.76;65.28
16595;BME280;8410;52.532;13.336;2023-05-03T04:19:38;102340.13;;;10.34;64.48
16595;BME280;8410;52.532;13.336;2023-05-03T04:22:06;102344.47;;;10.57;63.57
16595;BME280;8410;52.532;13.336;2023-05-03T04:24:33;102353.41;;;10.45;63.15
16595;BME280;8410;52.532;13.336;2023-05-03T04:27:05;102355.94;;;10.22;63.46
16595;BME280;8410;52.532;13.336;2023-05-03T04:29:34;102367.41;;;9.88;65.16
16595;BME280;8410;52.532;13.336;2023-05-03T04:32:03;102362.34;;;9.69;65.60
16595;BME280;8410;52.532;13.336;2023-05-03T04:34:34;102366.81;;;9.54;66.99
16595;BME280;8410;52.532;13.336;2023-05-03T04:37:02;102367.22;;;10.05;64.15
16595;BME280;8410;52.532;13.336;2023-05-03T04:39:30;102363.47;;;9.97;64.41
16595;BME280;8410;52.532;13.336;2023-05-03T04:41:57;102375.69;;;9.41;65.51
16595;BME280;8410;52.532;13.336;2023-05-03T04:44:25;102372.25;;;9.21;66.57
16595;BME280;8410;52.532;13.336;2023-05-03T04:46:53;102378.00;;;9.94;64.98
16595;BME280;8410;52.532;13.336;2023-05-03T04:49:20;102371.53;;;9.64;65.51
16595;BME280;8410;52.532;13.336;2023-05-03T04:51:49;102376.72;;;9.85;65.24
16595;BME280;8410;52.532;13.336;2023-05-03T04:54:16;102377.78;;;10.11;67.79
16595;BME280;8410;52.532;13.336;2023-05-03T04:56:44;102377.50;;;10.26;68.28
16595;BME280;8410;52.532;13.336;2023-05-03T04:59:11;102373.91;;;10.64;67.32
16595;BME280;8410;52.532;13.336;2023-05-03T05:01:38;102379.31;;;10.48;67.85
16595;BME280;8410;52.532;13.336;2023-05-03T05:04:06;102381.44;;;10.82;66.17
16595;BME280;8410;52.532;13.336;2023-05-03T05:06:34;102374.78;;;11.11;66.61
16595;BME280;8410;52.532;13.336;2023-05-03T05:09:05;102385.84;;;10.85;65.30
16595;BME280;8410;52.532;13.336;2023-05-03T05:11:33;102375.31;;;10.78;66.91
16595;BME280;8410;52.532;13.336;2023-05-03T05:14:01;102379.69;;;10.81;66.81
16595;BME280;8410;52.532;13.336;2023-05-03T05:16:28;102377.16;;;11.29;65.39
16595;BME280;8410;52.532;13.336;2023-05-03T05:18:56;102379.38;;;11.44;62.69
16595;BME280;8410;52.532;13.336;2023-05-03T05:21:24;102379.94;;;11.59;62.94
16595;BME280;8410;52.532;13.336;2023-05-03T05:23:52;102381.13;;;11.69;63.35
16595;BME280;8410;52.532;13.336;2023-05-03T05:26:20;102380.56;;;11.52;63.96
16595;BME280;8410;52.532;13.336;2023-05-03T05:28:48;102384.66;;;11.71;64.83
16595;BME280;8410;52.532;13.336;2023-05-03T05:31:16;102386.88;;;11.12;65.38
16595;BME280;8410;52.532;13.336;2023-05-03T05:33:43;102384.13;;;11.32;63.80
16595;BME280;8410;52.532;13.336;2023-05-03T05:36:12;102393.44;;;12.27;62.63
16595;BME280;8410;52.532;13.336;2023-05-03T05:38:40;102395.41;;;12.09;62.47
16595;BME280;8410;52.532;13.336;2023-05-03T05:41:08;102398.44;;;11.97;63.17
16595;BME280;8410;52.532;13.336;2023-05-03T05:43:36;102384.19;;;12.91;60.17
16595;BME280;8410;52.532;13.336;2023-05-03T05:46:04;102385.53;;;12.78;60.28
16595;BME280;8410;52.532;13.336;2023-05-03T05:48:31;102402.16;;;12.05;62.00
16595;BME280;8410;52.532;13.336;2023-05-03T05:50:59;102389.78;;;13.07;60.04
16595;BME280;8410;52.532;13.336;2023-05-03T05:53:26;102388.63;;;13.90;56.47
16595;BME280;8410;52.532;13.336;2023-05-03T05:55:54;102392.84;;;13.54;57.16
16595;BME280;8410;52.532;13.336;2023-05-03T05:58:21;102392.41;;;12.78;59.27
16595;BME280;8410;52.532;13.336;2023-05-03T06:00:50;102396.28;;;13.53;57.00
16595;BME280;8410;52.532;13.336;2023-05-03T06:03:18;102409.88;;;12.58;59.10
16595;BME280;8410;52.532;13.336;2023-05-03T06:05:45;102413.19;;;11.52;59.88
16595;BME280;8410;52.532;13.336;2023-05-03T06:08:13;102397.38;;;12.72;56.94
16595;BME280;8410;52.532;13.336;2023-05-03T06:10:41;102414.06;;;12.00;57.51
16595;BME280;8410;52.532;13.336;2023-05-03T06:13:08;102409.59;;;12.22;58.80
16595;BME280;8410;52.532;13.336;2023-05-03T06:15:36;102415.72;;;11.74;59.37
16595;BME280;8410;52.532;13.336;2023-05-03T06:18:05;102410.09;;;13.24;55.70
16595;BME280;8410;52.532;13.336;2023-05-03T06:20:32;102406.91;;;12.74;57.24
16595;BME280;8410;52.532;13.336;2023-05-03T06:23:00;102411.25;;;12.20;58.23
16595;BME280;8410;52.532;13.336;2023-05-03T06:25:27;102420.31;;;11.83;59.09
16595;BME280;8410;52.532;13.336;2023-05-03T06:27:55;102426.31;;;12.07;58.98
16595;BME280;8410;52.532;13.336;2023-05-03T06:30:22;102420.03;;;12.25;58.59
16595;BME280;8410;52.532;13.336;2023-05-03T06:32:51;102422.38;;;12.19;58.22
16595;BME280;8410;52.532;13.336;2023-05-03T06:35:19;102427.94;;;11.80;58.52
16595;BME280;8410;52.532;13.336;2023-05-03T06:37:47;102420.91;;;11.76;60.13
16595;BME280;8410;52.532;13.336;2023-05-03T06:40:15;102417.34;;;11.72;59.32
16595;BME280;8410;52.532;13.336;2023-05-03T06:42:43;102413.94;;;11.97;58.95
16595;BME280;8410;52.532;13.336;2023-05-03T06:45:11;102424.44;;;10.83;60.92
16595;BME280;8410;52.532;13.336;2023-05-03T06:47:38;102424.22;;;10.14;63.07
16595;BME280;8410;52.532;13.336;2023-05-03T06:50:09;102425.25;;;10.59;62.90
16595;BME280;8410;52.532;13.336;2023-05-03T06:52:37;102433.59;;;10.54;61.78
16595;BME280;8410;52.532;13.336;2023-05-03T06:55:07;102433.34;;;10.06;62.87
16595;BME280;8410;52.532;13.336;2023-05-03T06:57:34;102420.78;;;10.55;61.97
16595;BME280;8410;52.532;13.336;2023-05-03T07:00:02;102430.28;;;10.79;61.44
16595;BME280;8410;52.532;13.336;2023-05-03T07:02:32;102428.50;;;10.55;61.01
16595;BME280;8410;52.532;13.336;2023-05-03T07:05:00;102416.34;;;12.18;57.96
16595;BME280;8410;52.532;13.336;2023-05-03T07:07:28;102427.94;;;10.85;59.19
16595;BME280;8410;52.532;13.336;2023-05-03T07:09:57;102420.09;;;11.04;60.85
16595;BME280;8410;52.532;13.336;2023-05-03T07:12:25;102422.38;;;10.97;60.25
16595;BME280;8410;52.532;13.336;2023-05-03T07:14:54;102427.97;;;11.32;60.03
16595;BME280;8410;52.532;13.336;2023-05-03T07:17:22;102422.56;;;11.01;60.26
16595;BME280;8410;52.532;13.336;2023-05-03T07:19:50;102424.16;;;11.46;58.12
16595;BME280;8410;52.532;13.336;2023-05-03T07:22:17;102421.84;;;11.52;58.15
16595;BME280;8410;52.532;13.336;2023-05-03T07:24:46;102429.63;;;10.62;60.45
16595;BME280;8410;52.532;13.336;2023-05-03T07:27:15;102426.41;;;10.45;59.32
16595;BME280;8410;52.532;13.336;2023-05-03T07:29:42;102428.84;;;10.86;58.04
16595;BME280;8410;52.532;13.336;2023-05-03T07:32:10;102425.28;;;11.53;56.27
16595;BME280;8410;52.532;13.336;2023-05-03T07:34:38;102424.38;;;11.04;57.66
16595;BME280;8410;52.532;13.336;2023-05-03T07:37:05;102425.66;;;10.93;58.10
16595;BME280;8410;52.532;13.336;2023-05-03T07:39:33;102424.69;;;12.09;56.31
16595;BME280;8410;52.532;13.336;2023-05-03T07:42:01;102418.41;;;11.29;58.04
16595;BME280;8410;52.532;13.336;2023-05-03T07:44:30;102415.91;;;11.55;57.13
16595;BME280;8410;52.532;13.336;2023-05-03T07:46:58;102409.47;;;12.19;57.38
16595;BME280;8410;52.532;13.336;2023-05-03T07:49:25;102413.19;;;12.27;56.68
16595;BME280;8410;52.532;13.336;2023-05-03T07:51:52;102417.53;;;12.02;56.88
16595;BME280;8410;52.532;13.336;2023-05-03T07:54:20;102406.84;;;13.01;55.66
16595;BME280;8410;52.532;13.336;2023-05-03T07:56:47;102406.50;;;12.89;53.16
16595;BME280;8410;52.532;13.336;2023-05-03T07:59:15;102396.88;;;12.84;53.70
16595;BME280;8410;52.532;13.336;2023-05-03T08:01:43;102417.38;;;12.23;52.68
16595;BME280;8410;52.532;13.336;2023-05-03T08:04:11;102407.47;;;13.23;52.71
16595;BME280;8410;52.532;13.336;2023-05-03T08:06:39;102406.63;;;13.53;51.45
16595;BME280;8410;52.532;13.336;2023-05-03T08:09:08;102416.84;;;12.06;53.58
16595;BME280;8410;52.532;13.336;2023-05-03T08:11:36;102414.31;;;11.84;53.98
16595;BME280;8410;52.532;13.336;2023-05-03T08:14:06;102400.22;;;12.52;53.06
16595;BME280;8410;52.532;13.336;2023-05-03T08:16:33;102414.88;;;11.50;54.26
16595;BME280;8410;52.532;13.336;2023-05-03T08:19:02;102414.41;;;11.13;55.41
16595;BME280;8410;52.532;13.336;2023-05-03T08:21:30;102406.09;;;12.20;53.88
16595;BME280;8410;52.532;13.336;2023-05-03T08:23:58;102412.25;;;11.98;54.96
16595;BME280;8410;52.532;13.336;2023-05-03T08:26:27;102398.78;;;12.91;53.15
16595;BME280;8410;52.532;13.336;2023-05-03T08:28:55;102399.31;;;12.79;54.18
16595;BME280;8410;52.532;13.336;2023-05-03T08:31:22;102396.81;;;12.82;53.02
16595;BME280;8410;52.532;13.336;2023-05-03T08:33:50;102394.53;;;13.23;52.54
16595;BME280;8410;52.532;13.336;2023-05-03T08:36:18;102387.91;;;13.98;50.78
16595;BME280;8410;52.532;13.336;2023-05-03T08:38:46;102393.53;;;13.81;50.04
16595;BME280;8410;52.532;13.336;2023-05-03T08:41:20;102405.13;;;12.72;53.50
16595;BME280;8410;52.532;13.336;2023-05-03T08:43:51;102408.34;;;12.93;52.94
16595;BME280;8410;52.532;13.336;2023-05-03T08:46:19;102395.75;;;13.34;51.55
16595;BME280;8410;52.532;13.336;2023-05-03T08:48:48;102404.19;;;13.27;51.87
16595;BME280;8410;52.532;13.336;2023-05-03T08:51:16;102396.97;;;13.17;53.21
16595;BME280;8410;52.532;13.336;2023-05-03T08:53:45;102400.97;;;12.77;53.96
16595;BME280;8410;52.532;13.336;2023-05-03T08:56:17;102414.72;;;12.76;53.23
16595;BME280;8410;52.532;13.336;2023-05-03T08:58:46;102403.38;;;12.99;52.55
16595;BME280;8410;52.532;13.336;2023-05-03T09:03:55;102412.38;;;12.84;53.20
16595;BME280;8410;52.532;13.336;2023-05-03T09:06:23;102412.94;;;13.64;51.36
16595;BME280;8410;52.532;13.336;2023-05-03T09:08:54;102412.44;;;13.45;51.68
16595;BME280;8410;52.532;13.336;2023-05-03T09:11:22;102410.44;;;13.05;52.85
16595;BME280;8410;52.532;13.336;2023-05-03T09:13:50;102403.09;;;13.51;51.59
16595;BME280;8410;52.532;13.336;2023-05-03T09:16:22;102410.16;;;13.89;51.01
16595;BME280;8410;52.532;13.336;2023-05-03T09:18:56;102404.56;;;14.44;50.17
16595;BME280;8410;52.532;13.336;2023-05-03T09:21:24;102403.09;;;14.93;48.52
16595;BME280;8410;52.532;13.336;2023-05-03T09:23:53;102408.84;;;14.42;50.19
16595;BME280;8410;52.532;13.336;2023-05-03T09:26:28;102402.22;;;15.35;48.39
16595;BME280;8410;52.532;13.336;2023-05-03T09:28:57;102396.50;;;15.54;47.34
16595;BME280;8410;52.532;13.336;2023-05-03T09:31:25;102398.53;;;15.24;48.01
16595;BME280;8410;52.532;13.336;2023-05-03T09:33:52;102394.91;;;15.15;47.10
16595;BME280;8410;52.532;13.336;2023-05-03T09:36:20;102406.28;;;13.12;50.66
16595;BME280;8410;52.532;13.336;2023-05-03T09:38:48;102397.97;;;14.96;48.70
16595;BME280;8410;52.532;13.336;2023-05-03T09:41:25;102396.63;;;14.38;49.97
16595;BME280;8410;52.532;13.336;2023-05-03T09:43:53;102403.22;;;14.23;49.70
16595;BME280;8410;52.532;13.336;2023-05-03T09:46:22;102399.34;;;14.78;48.78
16595;BME280;8410;52.532;13.336;2023-05-03T09:48:51;102394.47;;;15.85;47.73
16595;BME280;8410;52.532;13.336;2023-05-03T09:51:22;102395.34;;;15.82;47.26
16595;BME280;8410;52.532;13.336;2023-05-03T09:53:50;102400.22;;;14.79;48.36
16595;BME280;8410;52.532;13.336;2023-05-03T09:56:19;102409.22;;;13.54;49.78
16595;BME280;8410;52.532;13.336;2023-05-03T09:58:52;102401.34;;;13.19;50.89
16595;BME280;8410;52.532;13.336;2023-05-03T10:01:20;102393.50;;;14.51;48.49
16595;BME280;8410;52.532;13.336;2023-05-03T10:03:50;102399.50;;;14.12;49.26
16595;BME280;8410;52.532;13.336;2023-05-03T10:06:23;102389.81;;;14.05;50.22
16595;BME280;8410;52.532;13.336;2023-05-03T10:08:52;102393.34;;;14.08;49.55
16595;BME280;8410;52.532;13.336;2023-05-03T10:11:25;102390.53;;;14.34;49.70
16595;BME280;8410;52.532;13.336;2023-05-03T10:13:53;102389.22;;;13.80;49.35
16595;BME280;8410;52.532;13.336;2023-05-03T10:16:25;102386.88;;;14.26;49.55
16595;BME280;8410;52.532;13.336;2023-05-03T10:19:01;102387.50;;;13.48;52.22
16595;BME280;8410;52.532;13.336;2023-05-03T10:21:37;102393.97;;;13.63;50.85
16595;BME280;8410;52.532;13.336;2023-05-03T10:24:09;102380.97;;;14.69;49.01
16595;BME280;8410;52.532;13.336;2023-05-03T10:26:40;102378.75;;;14.48;48.34
16595;BME280;8410;52.532;13.336;2023-05-03T10:29:45;102389.72;;;14.37;48.31
16595;BME280;8410;52.532;13.336;2023-05-03T10:32:28;102391.63;;;14.07;49.20
16595;BME280;8410;52.532;13.336;2023-05-03T10:34:56;102388.72;;;14.31;48.35
16595;BME280;8410;52.532;13.336;2023-05-03T10:37:29;102386.25;;;13.33;49.60
16595;BME280;8410;52.532;13.336;2023-05-03T10:40:04;102392.41;;;13.08;50.50
16595;BME280;8410;52.532;13.336;2023-05-03T10:42:33;102390.66;;;13.07;50.52
16595;BME280;8410;52.532;13.336;2023-05-03T10:45:01;102380.31;;;14.04;48.60
16595;BME280;8410;52.532;13.336;2023-05-03T10:47:29;102384.41;;;13.29;49.79
16595;BME280;8410;52.532;13.336;2023-05-03T10:50:24;102381.53;;;13.50;49.79
16595;BME280;8410;52.532;13.336;2023-05-03T10:52:52;102390.31;;;13.55;49.13
16595;BME280;8410;52.532;13.336;2023-05-03T10:55:21;102375.19;;;15.24;46.19
16595;BME280;8410;52.532;13.336;2023-05-03T10:57:54;102366.81;;;15.85;44.56
16595;BME280;8410;52.532;13.336;2023-05-03T11:00:28;102367.88;;;14.25;47.88
16595;BME280;8410;52.532;13.336;2023-05-03T11:03:23;102363.09;;;14.82;47.94
16595;BME280;8410;52.532;13.336;2023-05-03T11:05:56;102362.31;;;14.10;48.84
16595;BME280;8410;52.532;13.336;2023-05-03T11:08:24;102364.06;;;14.11;50.07
16595;BME280;8410;52.532;13.336;2023-05-03T11:10:57;102359.56;;;14.40;49.37
16595;BME280;8410;52.532;13.336;2023-05-03T11:13:26;102358.22;;;14.56;48.68
16595;BME280;8410;52.532;13.336;2023-05-03T11:15:54;102363.53;;;13.89;49.89
16595;BME280;8410;52.532;13.336;2023-05-03T11:18:23;102368.81;;;13.26;51.15
16595;BME280;8410;52.532;13.336;2023-05-03T11:20:52;102359.81;;;14.51;49.76
16595;BME280;8410;52.532;13.336;2023-05-03T11:23:24;102367.03;;;14.26;49.60
16595;BME280;8410;52.532;13.336;2023-05-03T11:25:52;102352.97;;;13.80;49.69
16595;BME280;8410;52.532;13.336;2023-05-03T11:28:19;102361.75;;;13.85;49.32
16595;BME280;8410;52.532;13.336;2023-05-03T11:30:48;102356.75;;;13.27;50.04
16595;BME280;8410;52.532;13.336;2023-05-03T11:33:16;102362.34;;;13.75;50.44
16595;BME280;8410;52.532;13.336;2023-05-03T11:35:44;102361.22;;;13.32;50.12
16595;BME280;8410;52.532;13.336;2023-05-03T11:38:12;102348.31;;;14.40;48.84
16595;BME280;8410;52.532;13.336;2023-05-03T11:40:39;102346.28;;;14.63;47.77
16595;BME280;8410;52.532;13.336;2023-05-03T11:43:07;102333.44;;;15.58;45.69
16595;BME280;8410;52.532;13.336;2023-05-03T11:45:38;102334.56;;;15.74;45.82
16595;BME280;8410;52.532;13.336;2023-05-03T11:48:09;102333.97;;;15.40;44.90
16595;BME280;8410;52.532;13.336;2023-05-03T11:50:45;102326.47;;;16.09;43.74
16595;BME280;8410;52.532;13.336;2023-05-03T11:53:14;102320.59;;;16.21;44.35
16595;BME280;8410;52.532;13.336;2023-05-03T11:55:43;102324.38;;;16.41;44.40
16595;BME280;8410;52.532;13.336;2023-05-03T11:58:14;102325.38;;;16.52;43.80
16595;BME280;8410;52.532;13.336;2023-05-03T12:00:43;102323.56;;;15.89;45.10
16595;BME280;8410;52.532;13.336;2023-05-03T12:03:16;102323.16;;;16.18;45.53
16595;BME280;8410;52.532;13.336;2023-05-03T12:05:45;102332.09;;;14.86;46.58
16595;BME280;8410;52.532;13.336;2023-05-03T12:08:14;102337.19;;;14.82;47.17
16595;BME280;8410;52.532;13.336;2023-05-03T12:10:47;102333.03;;;15.37;46.25
16595;BME280;8410;52.532;13.336;2023-05-03T12:13:26;102326.63;;;15.65;45.54
16595;BME280;8410;52.532;13.336;2023-05-03T12:15:56;102326.72;;;15.22;45.33
16595;BME280;8410;52.532;13.336;2023-05-03T12:18:48;102329.66;;;15.41;45.62
16595;BME280;8410;52.532;13.336;2023-05-03T12:21:17;102318.78;;;16.17;43.94
16595;BME280;8410;52.532;13.336;2023-05-03T12:23:49;102326.91;;;15.32;44.88
16595;BME280;8410;52.532;13.336;2023-05-03T12:26:21;102308.81;;;16.44;43.15
16595;BME280;8410;52.532;13.336;2023-05-03T12:28:50;102325.19;;;15.32;45.49
16595;BME280;8410;52.532;13.336;2023-05-03T12:31:22;102311.91;;;15.65;45.44
16595;BME280;8410;52.532;13.336;2023-05-03T12:33:51;102305.28;;;15.81;46.02
16595;BME280;8410;52.532;13.336;2023-05-03T12:36:21;102304.66;;;15.96;44.75
16595;BME280;8410;52.532;13.336;2023-05-03T12:38:51;102307.66;;;15.20;45.91
16595;BME280;8410;52.532;13.336;2023-05-03T12:41:22;102310.66;;;14.95;46.30
16595;BME280;8410;52.532;13.336;2023-05-03T12:44:12;102311.19;;;14.78;46.99
16595;BME280;8410;52.532;13.336;2023-05-03T12:46:42;102314.16;;;14.98;46.31
16595;BME280;8410;52.532;13.336;2023-05-03T12:49:12;102300.38;;;15.48;46.55
16595;BME280;8410;52.532;13.336;2023-05-03T12:51:41;102307.94;;;15.36;45.72
16595;BME280;8410;52.532;13.336;2023-05-03T12:54:09;102309.56;;;15.29;45.68
16595;BME280;8410;52.532;13.336;2023-05-03T12:56:37;102310.28;;;15.71;45.24
16595;BME280;8410;52.532;13.336;2023-05-03T12:59:06;102298.97;;;16.87;43.28
16595;BME280;8410;52.532;13.336;2023-05-03T13:01:37;102292.75;;;16.78;43.65
16595;BME280;8410;52.532;13.336;2023-05-03T13:04:25;102303.13;;;15.57;45.06
16595;BME280;8410;52.532;13.336;2023-05-03T13:06:56;102304.56;;;15.41;45.89